Flight Track Log - Related Links

Times and Time Zones

All times are in EDT time to prevent confusion due to time zone crossing. See the AWE1454 flight status page for this flight to view local times or setup timezone preferences in your user account.

Time Position Orientation Groundspeed Altitude Reporting Facility
EDT Latitude Longitude Course Direction KTS MPH feet Rate Location/Type
Thu 01:04:21 PM 33.6333 -84.3500 53° Northeast 187 215 2,800  Level Atlanta TRACON
Thu 01:05:00 PM 33.8481 -84.1540 73° East  Level Estimated
Thu 01:05:21 PM 33.6333 -84.2833 90° East 248 285 4,700  Level Atlanta TRACON
Thu 01:06:00 PM 33.9185 -84.0624 54° Northeast  Level Estimated
Thu 01:06:21 PM 33.6333 -84.1833 90° East 272 313 7,900  Level Atlanta TRACON
Thu 01:07:00 PM 33.8960 -83.9406 103° East  Level FlightAware Approximate
Thu 01:07:41 PM 33.6544 -84.0714 77° East 279 321 10,500  Level Atlanta Center
Thu 01:08:00 PM 33.9669 -83.8495 48° Northeast  Level Estimated
Thu 01:08:41 PM 33.7253 -83.9814 47° Northeast 326 375 12,400  Level Atlanta Center
Thu 01:09:00 PM 34.0377 -83.7583 53° Northeast  Level Estimated
Thu 01:09:41 PM 33.7961 -83.8889 47° Northeast 362 417 15,000  Level Atlanta Center
Thu 01:10:41 PM 33.8692 -83.7986 46° Northeast 373 429 16,900 1,900 Climbing Atlanta Center
Thu 01:11:41 PM 33.9419 -83.6983 49° Northeast 380 437 18,800 1,800 Climbing Atlanta Center
Thu 01:12:41 PM 34.0125 -83.5878 52° Northeast 404 465 20,500 1,800 Climbing Atlanta Center
Thu 01:13:41 PM 34.0831 -83.4719 54° Northeast 419 482 22,400 1,800 Climbing Atlanta Center
Thu 01:14:41 PM 34.1575 -83.3586 52° Northeast 425 489 24,100 1,550 Climbing Atlanta Center
Thu 01:15:41 PM 34.2319 -83.2372 53° Northeast 438 504 25,500 1,350 Climbing Atlanta Center
Thu 01:16:41 PM 34.3042 -83.1183 54° Northeast 438 504 26,800 1,200 Climbing Atlanta Center
Thu 01:17:41 PM 34.3806 -82.9942 53° Northeast 445 512 27,900 1,050 Climbing Atlanta Center
Thu 01:18:41 PM 34.4525 -82.8825 52° Northeast 456 525 28,900 1,300 Climbing Atlanta Center
Thu 01:19:41 PM 34.5286 -82.7578 53° Northeast 462 532 30,500 1,350 Climbing Atlanta Center
Thu 01:20:41 PM 34.6022 -82.6331 54° Northeast 457 526 31,600 1,050 Climbing Atlanta Center
Thu 01:21:41 PM 34.6883 -82.5003 52° Northeast 457 526 32,600 700 Climbing Atlanta Center
Thu 01:22:41 PM 34.7617 -82.3750 55° Northeast 457 526 33,000 600 Climbing Atlanta Center
Thu 01:23:41 PM 34.8372 -82.2547 53° Northeast 457 526 33,800 500 Climbing Atlanta Center
Thu 01:24:41 PM 34.9147 -82.1264 54° Northeast 457 526 34,000 100 Climbing Atlanta Center
Thu 01:25:41 PM 34.9900 -82.0056 53° Northeast 447 514 34,000  Level Atlanta Center
Thu 01:26:41 PM 35.0628 -81.8769 55° Northeast 452 520 34,000 250 Level Atlanta Center
Thu 01:27:41 PM 35.1294 -81.7506 57° Northeast 452 520 34,500 500 Climbing Atlanta Center
Thu 01:28:41 PM 35.1958 -81.6217 58° Northeast 446 513 35,000 250 Climbing Atlanta Center
Thu 01:29:41 PM 35.2642 -81.4925 57° Northeast 441 507 35,000  Level Atlanta Center
Thu 01:30:41 PM 35.3303 -81.3631 58° Northeast 446 513 35,000  Level Atlanta Center
Thu 01:31:41 PM 35.3961 -81.2336 58° Northeast 446 513 35,000  Level Atlanta Center
Thu 01:32:41 PM 35.4661 -81.0986 57° Northeast 451 519 35,000  Level Atlanta Center
Thu 01:33:41 PM 35.5381 -80.9658 56° Northeast 462 532 35,000  Level Atlanta Center
Thu 01:34:41 PM 35.6075 -80.8306 58° Northeast 462 532 35,000  Level Atlanta Center
Thu 01:35:41 PM 35.6750 -80.7025 57° Northeast 462 532 35,000  Level Atlanta Center
Thu 01:36:41 PM 35.7444 -80.5692 57° Northeast 457 526 35,000  Level Atlanta Center
Thu 01:37:41 PM 35.8133 -80.4331 58° Northeast 457 526 35,000 250 Level Atlanta Center
Thu 01:38:41 PM 35.8803 -80.3022 58° Northeast 458 527 35,500 543 Climbing Atlanta Center
Thu 01:41:11 PM 36.0397 -79.9872 58° Northeast 459 528 36,900 429 Climbing Washington Center
Thu 01:42:11 PM 36.1114 -79.8522 57° Northeast 454 522 37,000 50 Climbing Washington Center
Thu 01:43:11 PM 36.1936 -79.7153 53° Northeast 459 528 37,000  Level Washington Center
Thu 01:44:11 PM 36.2689 -79.5825 55° Northeast 459 528 37,000  Level Washington Center
Thu 01:45:11 PM 36.3419 -79.4547 55° Northeast 459 528 37,000  Level Washington Center
Thu 01:46:11 PM 36.4153 -79.3192 56° Northeast 459 528 37,000  Level Washington Center
Thu 01:47:11 PM 36.4881 -79.1881 55° Northeast 459 528 37,000  Level Washington Center
Thu 01:48:11 PM 36.5628 -79.0572 55° Northeast 459 528 37,000  Level Washington Center
Thu 01:49:11 PM 36.6375 -78.9258 55° Northeast 459 528 37,000  Level Washington Center
Thu 01:50:11 PM 36.7036 -78.7992 57° Northeast 466 536 37,000  Level Washington Center
Thu 01:51:11 PM 36.7781 -78.6647 55° Northeast 471 542 37,000  Level Washington Center
Thu 01:52:11 PM 36.8833 -78.5417 43° Northeast 465 535 37,000  Level Washington Center
Thu 01:53:11 PM 36.9797 -78.4389 40° Northeast 459 528 37,000  Level Washington Center
Thu 01:54:11 PM 37.0822 -78.3358 39° Northeast 459 528 37,000  Level Washington Center
Thu 01:55:11 PM 37.1783 -78.2350 40° Northeast 465 535 37,000  Level Washington Center
Thu 01:56:11 PM 37.2786 -78.1314 39° Northeast 456 525 37,000  Level Washington Center
Thu 01:57:11 PM 37.3767 -78.0303 39° Northeast 456 525 37,000  Level Washington Center
Thu 01:58:11 PM 37.4747 -77.9261 40° Northeast 456 525 37,000 -500 Level Washington Center
Thu 01:59:11 PM 37.5750 -77.8192 40° Northeast 466 536 36,000 -1,750 Descending Washington Center
Thu 02:00:11 PM 37.6769 -77.7119 40° Northeast 466 536 33,500 -2,450 Descending Washington Center
Thu 02:01:11 PM 37.7789 -77.6044 40° Northeast 466 536 31,100 -1,250 Descending Washington Center
Thu 02:02:11 PM 37.8869 -77.5019 37° Northeast 466 536 31,000 -50 Descending Washington Center
Thu 02:03:11 PM 37.9969 -77.4019 36° Northeast 478 550 31,000  Level Washington Center
Thu 02:04:11 PM 38.0919 -77.3144 36° Northeast 478 550 31,000  Level Washington Center
Thu 02:05:11 PM 38.2019 -77.2142 36° Northeast 478 550 31,000  Level Washington Center
Thu 02:06:11 PM 38.3117 -77.1133 36° Northeast 490 564 31,000 -50 Level Washington Center
Thu 02:07:11 PM 38.4192 -77.0147 36° Northeast 485 558 30,900  Descending Washington Center
Thu 02:08:11 PM 38.5350 -76.9028 37° Northeast 479 551 31,000 -2,650 Climbing Washington Center
Thu 02:09:11 PM 38.6383 -76.8089 35° Northeast 474 545 25,600 -3,500 Descending Washington Center
Thu 02:10:11 PM 38.7122 -76.7036 48° Northeast 442 509 24,000 -1,900 Descending Washington Center
Thu 02:11:11 PM 38.7450 -76.5419 75° East 424 488 21,800 -2,100 Descending Washington Center
Thu 02:12:11 PM 38.7750 -76.4011 75° East 406 467 19,800 -1,950 Descending Washington Center
Thu 02:13:11 PM 38.8031 -76.2631 75° East 401 461 17,900 -1,750 Descending Washington Center
Thu 02:14:11 PM 38.8328 -76.1433 72° East 395 455 16,300 -1,450 Descending Washington Center
Thu 02:15:11 PM 38.8564 -76.0075 77° East 387 445 15,000 -506 Descending Washington Center
Thu 02:16:45 PM 38.9036 -75.8275 71° East 335 386 15,000  Level FAA TRACON SMA TRACON (SMA)
Thu 02:17:05 PM 38.9264 -75.8033 40° Northeast 339 390 15,000  Level FAA TRACON SMA TRACON (SMA)
Thu 02:17:25 PM 38.9569 -75.7747 36° Northeast 331 381 15,000  Level FAA TRACON SMA TRACON (SMA)
Thu 02:17:45 PM 38.9814 -75.7519 36° Northeast 339 390 15,000  Level FAA TRACON SMA TRACON (SMA)
Thu 02:18:05 PM 39.0067 -75.7286 36° Northeast 339 390 15,000 -300 Level FAA TRACON SMA TRACON (SMA)
Thu 02:18:25 PM 39.0308 -75.7058 36° Northeast 342 394 14,800 -1,050 Descending FAA TRACON SMA TRACON (SMA)
Thu 02:18:45 PM 39.0556 -75.6856 32° Northeast 359 413 14,300 -1,800 Descending FAA TRACON SMA TRACON (SMA)
Thu 02:19:05 PM 39.0911 -75.6753 13° North 340 391 13,600 -1,950 Descending FAA TRACON SMA TRACON (SMA)
Thu 02:19:25 PM 39.1194 -75.6714 North 334 384 13,000 -1,650 Descending FAA TRACON SMA TRACON (SMA)
Thu 02:19:45 PM 39.1478 -75.6678 North 332 382 12,500 -1,800 Descending FAA TRACON SMA TRACON (SMA)
Thu 02:20:05 PM 39.1828 -75.6644 North 328 377 11,800 -1,953 Descending FAA TRACON SMA TRACON (SMA)
Thu 02:20:28 PM 39.2178 -75.6600 North 328 377 11,100 -1,674 Descending FAA TRACON SMA TRACON (SMA)
Thu 02:20:48 PM 39.2453 -75.6575 North 323 372 10,600 -1,622 Descending FAA TRACON SMA TRACON (SMA)
Thu 02:21:05 PM 39.2722 -75.6542 North 319 367 10,100 -973 Descending FAA TRACON SMA TRACON (SMA)
Thu 02:21:25 PM 39.2969 -75.6417 21° North 318 366 10,000 -300 Descending FAA TRACON SMA TRACON (SMA)
Thu 02:21:45 PM 39.3194 -75.6228 33° Northeast 310 357 9,900 -900 Descending FAA TRACON SMA TRACON (SMA)
Thu 02:22:05 PM 39.3464 -75.5978 36° Northeast 308 354 9,400 -1,500 Descending FAA TRACON SMA TRACON (SMA)
Thu 02:22:25 PM 39.3647 -75.5744 45° Northeast 308 354 8,900 -1,350 Descending FAA TRACON SMA TRACON (SMA)
Thu 02:22:45 PM 39.3733 -75.5431 70° East 297 342 8,500 -1,350 Descending FAA TRACON SMA TRACON (SMA)
Thu 02:23:05 PM 39.3819 -75.5025 75° East 303 349 8,000 -750 Descending FAA TRACON SMA TRACON (SMA)
Thu 02:23:25 PM 39.3886 -75.4722 74° East 285 328 8,000  Level FAA TRACON SMA TRACON (SMA)
Thu 02:23:45 PM 39.3956 -75.4436 73° East 276 318 8,000  Level FAA TRACON SMA TRACON (SMA)
Thu 02:24:05 PM 39.4031 -75.4100 74° East 256 295 8,000  Level FAA TRACON SMA TRACON (SMA)
Thu 02:24:25 PM 39.4092 -75.3814 75° East 265 305 8,000  Level FAA TRACON SMA TRACON (SMA)
Thu 02:24:45 PM 39.4158 -75.3533 73° East 265 305 8,000  Level FAA TRACON SMA TRACON (SMA)
Thu 02:25:05 PM 39.4236 -75.3189 74° East 266 306 8,000  Level FAA TRACON SMA TRACON (SMA)
Thu 02:25:25 PM 39.4306 -75.2908 72° East 266 306 8,000  Level FAA TRACON SMA TRACON (SMA)
Thu 02:25:45 PM 39.4431 -75.2656 57° Northeast 274 315 8,000  Level FAA TRACON SMA TRACON (SMA)
Thu 02:26:05 PM 39.4703 -75.2547 17° North 274 315 8,000 -150 Level FAA TRACON SMA TRACON (SMA)
Thu 02:26:25 PM 39.4914 -75.2600 349° North 263 303 7,900 -600 Descending FAA TRACON SMA TRACON (SMA)
Thu 02:26:45 PM 39.5131 -75.2719 337° Northwest 262 302 7,600 -900 Descending FAA TRACON SMA TRACON (SMA)
Thu 02:27:05 PM 39.5392 -75.2842 340° North 263 303 7,300 -750 Descending FAA TRACON SMA TRACON (SMA)
Thu 02:27:25 PM 39.5608 -75.2953 338° Northwest 264 304 7,100 -750 Descending FAA TRACON SMA TRACON (SMA)
Thu 02:27:45 PM 39.5819 -75.3056 339° North 264 304 6,800 -900 Descending FAA TRACON SMA TRACON (SMA)
Thu 02:28:05 PM 39.6086 -75.3181 340° North 262 302 6,500 -900 Descending FAA TRACON SMA TRACON (SMA)
Thu 02:28:25 PM 39.6294 -75.3281 340° North 261 300 6,200 -750 Descending FAA TRACON SMA TRACON (SMA)
Thu 02:28:45 PM 39.6492 -75.3378 339° North 259 298 6,000 -300 Descending FAA TRACON SMA TRACON (SMA)
Thu 02:29:05 PM 39.6736 -75.3486 341° North 234 269 6,000  Level FAA TRACON SMA TRACON (SMA)
Thu 02:29:25 PM 39.6917 -75.3578 339° North 231 266 6,000  Level FAA TRACON SMA TRACON (SMA)
Thu 02:29:45 PM 39.7103 -75.3667 340° North 229 264 6,000  Level FAA TRACON SMA TRACON (SMA)
Thu 02:30:05 PM 39.7267 -75.3875 316° Northwest 224 258 6,000  Level FAA TRACON SMA TRACON (SMA)
Thu 02:30:25 PM 39.7303 -75.4094 282° West 200 230 6,000  Level FAA TRACON SMA TRACON (SMA)
Thu 02:30:46 PM 39.7281 -75.4294 262° West 179 206 6,000  Level FAA TRACON SMA TRACON (SMA)
Thu 02:31:05 PM 39.7219 -75.4536 252° West 185 213 6,000  Level FAA TRACON SMA TRACON (SMA)
Thu 02:31:25 PM 39.7175 -75.4739 254° West 185 213 6,000  Level FAA TRACON SMA TRACON (SMA)
Thu 02:31:45 PM 39.7133 -75.4931 254° West 183 211 6,000  Level FAA TRACON SMA TRACON (SMA)
Thu 02:32:05 PM 39.7089 -75.5131 254° West 184 212 6,000 -100 Level FAA TRACON SMA TRACON (SMA)
Thu 02:32:45 PM 39.7006 -75.5575 256° West 181 208 5,900 -500 Descending FAA TRACON SMA TRACON (SMA)
Thu 02:33:05 PM 39.6981 -75.5772 261° West 180 207 5,500 -900 Descending FAA TRACON SMA TRACON (SMA)
Thu 02:33:45 PM 39.6931 -75.6211 262° West 178 205 5,000 -500 Descending FAA TRACON SMA TRACON (SMA)
Thu 02:34:05 PM 39.6911 -75.6411 263° West 179 206 5,000  Level FAA TRACON SMA TRACON (SMA)
Thu 02:34:25 PM 39.6886 -75.6656 262° West 181 208 5,000  Level FAA TRACON SMA TRACON (SMA)
Thu 02:34:45 PM 39.6864 -75.6864 262° West 182 209 5,000  Level FAA TRACON SMA TRACON (SMA)
Thu 02:35:05 PM 39.6847 -75.7064 264° West 182 209 5,000 -300 Level FAA TRACON SMA TRACON (SMA)
Thu 02:35:25 PM 39.6992 -75.7281 311° West 215 247 4,800 -750 Descending FAA TRACON SMA TRACON (SMA)
Thu 02:35:45 PM 39.7142 -75.7411 326° Northwest 217 250 4,500 -900 Descending FAA TRACON SMA TRACON (SMA)
Thu 02:36:05 PM 39.7289 -75.7547 325° Northwest 209 241 4,200 -750 Descending FAA TRACON SMA TRACON (SMA)
Thu 02:36:25 PM 39.7500 -75.7617 346° North 222 255 4,000 -300 Descending FAA TRACON SMA TRACON (SMA)
Thu 02:36:45 PM 39.7656 -75.7481 34° Northeast 210 242 4,000  Level FAA TRACON SMA TRACON (SMA)
Thu 02:37:05 PM 39.7694 -75.7264 77° East 193 222 4,000  Level FAA TRACON SMA TRACON (SMA)
Thu 02:37:25 PM 39.7744 -75.7003 76° East 194 223 4,000  Level FAA TRACON SMA TRACON (SMA)
Thu 02:37:45 PM 39.7789 -75.6792 75° East 196 226 4,000  Level FAA TRACON SMA TRACON (SMA)
Thu 02:38:05 PM 39.7833 -75.6553 76° East 200 230 4,000  Level FAA TRACON SMA TRACON (SMA)
Thu 02:38:25 PM 39.7892 -75.6297 73° East 203 234 4,000  Level FAA TRACON SMA TRACON (SMA)
Thu 02:38:45 PM 39.7936 -75.6075 75° East 204 235 4,000  Level FAA TRACON SMA TRACON (SMA)
Thu 02:39:05 PM 39.7981 -75.5856 75° East 204 235 4,000  Level FAA TRACON SMA TRACON (SMA)
Thu 02:39:25 PM 39.8036 -75.5583 75° East 203 234 4,000  Level FAA TRACON SMA TRACON (SMA)
Thu 02:39:45 PM 39.8081 -75.5367 75° East 202 232 4,000 -300 Level FAA TRACON SMA TRACON (SMA)
Thu 02:40:05 PM 39.8125 -75.5150 75° East 201 231 3,800 -769 Descending FAA TRACON SMA TRACON (SMA)
Thu 02:40:24 PM 39.8169 -75.4931 75° East 203 234 3,500 -1,077 Descending FAA TRACON SMA TRACON (SMA)
Thu 02:40:44 PM 39.8225 -75.4664 75° East 200 230 3,100 -1,050 Descending FAA TRACON SMA TRACON (SMA)
Thu 02:41:04 PM 39.8267 -75.4453 76° East 197 227 2,800 -1,050 Descending FAA TRACON SMA TRACON (SMA)
Thu 02:41:24 PM 39.8317 -75.4194 76° East 194 223 2,400 -1,200 Descending FAA TRACON SMA TRACON (SMA)
Thu 02:41:44 PM 39.8358 -75.4000 74° East 185 213 2,000 -900 Descending FAA TRACON SMA TRACON (SMA)
Thu 02:42:04 PM 39.8392 -75.3822 76° East 170 196 1,800 -900 Descending FAA TRACON SMA TRACON (SMA)
Thu 02:42:24 PM 39.8433 -75.3622 75° East 147 169 1,400 -900 Descending FAA TRACON SMA TRACON (SMA)
Thu 02:42:44 PM 39.8461 -75.3478 76° East 138 159 1,200 -585 Descending FAA TRACON SMA TRACON (SMA)
Thu 02:43:05 PM 39.8489 -75.3342 75° East 126 145 1,000 -750 Descending FAA TRACON SMA TRACON (SMA)
Thu 02:43:24 PM 39.8522 -75.3169 76° East 126 145 700 -615 Descending FAA TRACON SMA TRACON (SMA)
Thu 02:43:44 PM 39.8550 -75.3033 75° East 126 145 600 -585 Descending FAA TRACON SMA TRACON (SMA)
Thu 02:44:05 PM 39.8581 -75.2892 74° East 128 147 300 -732 Descending FAA TRACON SMA TRACON (SMA)
Thu 02:44:25 PM 39.8600 -75.2789 76° East 127 146 100 -200 Descending FAA TRACON SMA TRACON (SMA)
Thu 02:45:05 PM 39.8600 -75.2789 90° East 127 146 100  Level FAA TRACON SMA TRACON (SMA)

Login

Don't have an account? Register now (free) for customized features, flight alerts, and more!